Arklow Wind — EIKZ — position and weather

sailwx.info

Track history (hours):
 
Tides and Currents Weather Stations Pressure Air Temp Water Temp Dewpoint Dewpoint Depression Visibility Wind Speed Wind Dir Waves Ship Positions

Arklow Wind

Last reported at 2014-Dec-20 03:33 UTC. Time now 2014-Dec-20 10:28 UTC.
Position N 54°09' W 005°23'.

Length 136 m; draft 4.9 m.

Type: Cargo ship. MMSI: 250506000.

Date/timePositionNaut miles runAvg speedWind from/ knotsBaromVisibWave heightAir tempDewpointWater temp
2014-Dec-20 03:33N 54°09' W 005°23'1212.4
2014-Dec-20 02:33N 54°21' W 005°20'1212.0
2014-Dec-20 01:33N 54°33' W 005°22'1211.6
2014-Dec-20 00:33N 54°44' W 005°27'1212.0
2014-Dec-19 23:32N 54°55' W 005°37'  
2014-Dec-17 19:10N 54°51' W 005°32'712.3
2014-Dec-17 18:33N 54°45' W 005°27'1212.0
2014-Dec-17 17:33N 54°33' W 005°20'1412.9
2014-Dec-17 16:30N 54°20' W 005°18'38212.4
2014-Dec-16 09:33N 47°58' W 005°09'1312.3
2014-Dec-16 08:31N 47°51' W 004°52'  
Track history (hours):
 
Tides and Currents Weather Stations Pressure Air Temp Water Temp Dewpoint Dewpoint Depression Visibility Wind Speed Wind Dir Waves Ship Positions

Arklow Wind

Last reported at 2014-Dec-20 03:33 UTC. Time now 2014-Dec-20 10:28 UTC.
Position N 54°09' W 005°23'.

Length 136 m; draft 4.9 m.

Type: Cargo ship. MMSI: 250506000.

Date/timePositionNaut miles runAvg speedWind from/ knotsBaromVisibWave heightAir tempDewpointWater temp
2014-Dec-20 03:33N 54°09' W 005°23'1212.4
2014-Dec-20 02:33N 54°21' W 005°20'1212.0
2014-Dec-20 01:33N 54°33' W 005°22'1211.6
2014-Dec-20 00:33N 54°44' W 005°27'1212.0
2014-Dec-19 23:32N 54°55' W 005°37'  
2014-Dec-17 19:10N 54°51' W 005°32'712.3
2014-Dec-17 18:33N 54°45' W 005°27'1212.0
2014-Dec-17 17:33N 54°33' W 005°20'1412.9
2014-Dec-17 16:30N 54°20' W 005°18'38212.4
2014-Dec-16 09:33N 47°58' W 005°09'1312.3
2014-Dec-16 08:31N 47°51' W 004°52'  

Dump ship's entire track history